Time;durP1;ratioP1;P1;durP2;ratioP2;P2;SDS_P1;SDS_P2;PMS_P1;PMS_P2;Temp;Humidity;BMP_temperature;BMP_pressure;BME280_temperature;BME280_humidity;BME280_pressure;Samples;Min_cycle;Max_cycle;Signal;HPM_P1;HPM_P2
2023/11/13 00:01:20;;;;;;;8.87;6.63;;;;;;;5.36;100.00;152738.22;4943672;28;20656;-85
2023/11/13 00:03:46;;;;;;;7.67;6.20;;;;;;;5.38;100.00;152743.34;4937103;29;20849;-85
2023/11/13 00:06:14;;;;;;;10.27;6.93;;;;;;;5.39;100.00;152745.94;4937553;28;20970;-85
2023/11/13 00:08:42;;;;;;;8.13;6.40;;;;;;;5.43;100.00;152756.25;4944686;29;20540;-84
2023/11/13 00:11:09;;;;;;;6.90;5.40;;;;;;;5.44;100.00;152760.13;4941267;29;20823;-85
2023/11/13 00:13:38;;;;;;;8.37;5.90;;;;;;;5.45;100.00;152762.69;4934893;28;20467;-85
2023/11/13 00:16:05;;;;;;;7.70;5.83;;;;;;;5.46;100.00;152764.00;4950459;28;20919;-85
2023/11/13 00:18:33;;;;;;;8.60;6.07;;;;;;;5.47;100.00;152766.59;4939418;28;21031;-85
2023/11/13 00:20:59;;;;;;;6.87;6.03;;;;;;;5.47;100.00;152767.88;4944334;29;20459;-85
2023/11/13 00:23:28;;;;;;;6.23;5.37;;;;;;;5.48;100.00;152769.19;4946053;29;20471;-85
2023/11/13 00:25:55;;;;;;;7.50;5.50;;;;;;;5.51;100.00;152778.19;4961923;28;20498;-86
2023/11/13 00:28:22;;;;;;;6.73;4.70;;;;;;;5.54;100.00;152785.91;4940540;28;21154;-83
2023/11/13 00:30:48;;;;;;;7.03;5.20;;;;;;;5.57;100.00;152792.38;4927855;29;20462;-85
2023/11/13 00:33:16;;;;;;;6.30;5.57;;;;;;;5.60;100.00;152800.09;4943652;29;20458;-85
2023/11/13 00:35:44;;;;;;;7.20;4.80;;;;;;;5.62;100.00;152805.25;4938455;28;20483;-85
2023/11/13 00:38:11;;;;;;;10.80;6.93;;;;;;;5.68;100.00;152820.75;4958914;28;20738;-85
2023/11/13 00:40:37;;;;;;;7.40;6.23;;;;;;;5.70;100.00;152825.88;4942149;28;20957;-85
2023/11/13 00:43:04;;;;;;;6.87;5.80;;;;;;;5.69;100.00;152823.34;4947186;28;20479;-85
2023/11/13 00:45:31;;;;;;;9.70;7.20;;;;;;;5.68;100.00;152820.75;4947155;28;20813;-85
2023/11/13 00:47:58;;;;;;;8.33;7.03;;;;;;;5.66;100.00;152815.59;4943448;28;20513;-85
2023/11/13 00:50:25;;;;;;;9.27;7.43;;;;;;;5.68;100.00;152819.44;4950602;28;20497;-84
2023/11/13 00:52:53;;;;;;;9.27;7.13;;;;;;;5.68;100.00;152820.75;4961044;28;20455;-84
2023/11/13 00:55:19;;;;;;;10.20;7.80;;;;;;;5.67;100.00;152818.16;4945192;29;20834;-84
2023/11/13 00:57:46;;;;;;;12.03;8.20;;;;;;;5.66;100.00;152815.59;4945383;28;20611;-84
2023/11/13 01:00:14;;;;;;;9.97;7.20;;;;;;;5.67;100.00;152818.16;4943412;28;20471;-84
2023/11/13 01:02:41;;;;;;;11.27;8.57;;;;;;;5.66;100.00;152814.28;4930850;29;20467;-84
2023/11/13 01:05:08;;;;;;;9.30;7.43;;;;;;;5.65;100.00;152813.00;4943869;28;20465;-84
2023/11/13 01:07:35;;;;;;;10.07;7.47;;;;;;;5.66;100.00;152815.59;4949398;28;20816;-84
2023/11/13 01:10:04;;;;;;;9.93;8.40;;;;;;;5.67;100.00;152818.16;4949486;28;20479;-84
2023/11/13 01:12:31;;;;;;;10.67;8.60;;;;;;;5.66;100.00;152815.59;4946813;29;20816;-84
2023/11/13 01:14:58;;;;;;;12.40;10.00;;;;;;;5.65;100.00;152813.00;4948711;28;20897;-84
2023/11/13 01:17:25;;;;;;;11.97;9.83;;;;;;;5.64;100.00;152810.41;4933804;29;20805;-84
2023/11/13 01:19:52;;;;;;;12.27;9.93;;;;;;;5.65;100.00;152813.00;4943914;28;20488;-84
2023/11/13 01:22:19;;;;;;;14.40;9.60;;;;;;;5.66;100.00;152815.59;4956005;28;20478;-85
2023/11/13 01:24:46;;;;;;;12.80;9.70;;;;;;;5.69;100.00;152822.03;4946824;28;20453;-85
2023/11/13 01:27:13;;;;;;;12.37;9.33;;;;;;;5.69;100.00;152822.03;4948624;28;20451;-85
2023/11/13 01:29:40;;;;;;;11.70;9.50;;;;;;;5.69;100.00;152823.34;4943045;28;20456;-85
2023/11/13 01:32:07;;;;;;;12.93;9.80;;;;;;;5.71;100.00;152828.47;4947192;29;20458;-84
2023/11/13 01:34:33;;;;;;;11.30;9.67;;;;;;;5.72;100.00;152831.03;4945819;28;20869;-84
2023/11/13 01:37:00;;;;;;;11.07;8.73;;;;;;;5.73;100.00;152832.34;4946122;28;20455;-84
2023/11/13 01:39:26;;;;;;;13.20;8.83;;;;;;;5.75;100.00;152838.78;4945519;29;20462;-84
2023/11/13 01:41:53;;;;;;;14.03;9.40;;;;;;;5.76;100.00;152840.06;4945954;29;20459;-84
2023/11/13 01:44:21;;;;;;;11.97;9.20;;;;;;;5.78;100.00;152846.53;4948064;28;20539;-85
2023/11/13 01:46:48;;;;;;;11.70;8.27;;;;;;;5.80;100.00;152851.66;4944326;28;20460;-84
2023/11/13 01:49:15;;;;;;;10.13;8.00;;;;;;;5.81;100.00;152854.28;4943527;29;20898;-84
2023/11/13 01:51:41;;;;;;;11.63;8.23;;;;;;;5.82;100.00;152856.88;4943384;28;20457;-84
2023/11/13 01:54:08;;;;;;;10.50;8.33;;;;;;;5.83;100.00;152859.41;4945613;29;20447;-84
2023/11/13 01:56:35;;;;;;;10.03;7.93;;;;;;;5.84;100.00;152862.00;4945601;28;20489;-85
2023/11/13 01:59:02;;;;;;;9.53;7.60;;;;;;;5.84;100.00;152862.00;4927424;29;20451;-84
2023/11/13 02:01:31;;;;;;;10.07;8.27;;;;;;;5.86;100.00;152867.22;4927174;29;20455;-84
2023/11/13 02:03:57;;;;;;;11.20;8.20;;;;;;;5.85;100.00;152864.63;4944408;28;20982;-84
2023/11/13 02:06:24;;;;;;;12.60;9.00;;;;;;;5.87;100.00;152868.50;4943608;28;20462;-84
2023/11/13 02:08:51;;;;;;;9.70;7.50;;;;;;;5.88;100.00;152871.06;4944150;29;20462;-84
2023/11/13 02:11:19;;;;;;;12.87;9.07;;;;;;;5.92;100.00;152882.69;4935466;29;20467;-84
2023/11/13 02:13:47;;;;;;;13.83;9.10;;;;;;;5.93;100.00;152884.00;4954711;29;20460;-85
2023/11/13 02:16:14;;;;;;;8.67;7.33;;;;;;;5.93;100.00;152885.25;4952807;29;20990;-85
2023/11/13 02:18:42;;;;;;;9.77;7.73;;;;;;;5.93;100.00;152885.25;4950005;28;20467;-85
2023/11/13 02:21:08;;;;;;;9.23;7.27;;;;;;;5.94;100.00;152887.84;4946953;28;20459;-85
2023/11/13 02:23:36;;;;;;;9.33;7.27;;;;;;;5.97;100.00;152895.59;4945824;28;20475;-85
2023/11/13 02:26:11;;;;;;;10.00;7.60;;;;;;;6.01;100.00;152905.88;4950326;28;20470;-85
2023/11/13 02:28:38;;;;;;;9.87;7.10;;;;;;;6.01;100.00;152905.88;4946014;28;20981;-84
2023/11/13 02:31:05;;;;;;;8.83;6.27;;;;;;;6.03;100.00;152911.09;4946721;28;20467;-85
2023/11/13 02:33:32;;;;;;;8.00;7.00;;;;;;;6.15;100.00;152940.72;4946428;28;20542;-85
2023/11/13 02:35:59;;;;;;;7.63;5.70;;;;;;;6.25;100.00;152965.28;4959245;28;20462;-85
2023/11/13 02:38:26;;;;;;;7.00;5.30;;;;;;;6.36;100.00;152994.91;4944424;28;20542;-85
2023/11/13 02:40:53;;;;;;;6.67;5.40;;;;;;;6.39;100.00;153001.38;4942672;29;20456;-84
2023/11/13 02:43:20;;;;;;;7.67;6.70;;;;;;;6.35;100.00;152992.38;4947710;29;21021;-85
2023/11/13 02:45:47;;;;;;;8.73;6.47;;;;;;;6.33;100.00;152987.16;4942703;29;21264;-84
2023/11/13 02:48:13;;;;;;;10.53;7.00;;;;;;;6.37;100.00;152996.22;4943420;28;20825;-84
2023/11/13 02:50:40;;;;;;;10.57;7.00;;;;;;;6.37;100.00;152997.53;4929494;29;20598;-84
2023/11/13 02:53:06;;;;;;;9.73;8.10;;;;;;;6.35;100.00;152992.38;4944569;28;20794;-84
2023/11/13 02:55:33;;;;;;;14.80;8.67;;;;;;;6.35;100.00;152991.06;4944065;28;20459;-84
2023/11/13 02:58:01;;;;;;;12.17;8.57;;;;;;;6.34;100.00;152988.47;4941450;29;20459;-84
2023/11/13 03:00:27;;;;;;;12.53;9.37;;;;;;;6.31;100.00;152980.72;4943660;28;20469;-85
2023/11/13 03:02:54;;;;;;;11.60;8.60;;;;;;;6.29;100.00;152976.88;4945893;28;21005;-84
2023/11/13 03:05:21;;;;;;;13.30;10.53;;;;;;;6.28;100.00;152974.28;4923563;29;20463;-84
2023/11/13 03:07:47;;;;;;;12.30;9.80;;;;;;;6.26;100.00;152969.13;4945620;28;20462;-85
2023/11/13 03:10:14;;;;;;;15.20;10.73;;;;;;;6.26;100.00;152967.81;4941334;28;20475;-84
2023/11/13 03:12:40;;;;;;;12.10;9.60;;;;;;;6.26;100.00;152969.13;4942709;29;20483;-84
2023/11/13 03:15:10;;;;;;;15.43;10.47;;;;;;;6.26;100.00;152967.81;4944378;29;20543;-84
2023/11/13 03:17:36;;;;;;;15.10;10.30;;;;;;;6.27;100.00;152971.72;4962163;28;20803;-83
2023/11/13 03:20:04;;;;;;;16.53;10.50;;;;;;;6.26;100.00;152967.81;4948438;28;20463;-84
2023/11/13 03:22:30;;;;;;;12.53;10.23;;;;;;;6.25;100.00;152966.53;4945946;28;20463;-84
2023/11/13 03:24:57;;;;;;;14.43;10.27;;;;;;;6.27;100.00;152970.41;4947561;29;20882;-84
2023/11/13 03:27:24;;;;;;;13.30;10.17;;;;;;;6.27;100.00;152970.41;4939862;28;20966;-84
2023/11/13 03:29:51;;;;;;;12.77;9.37;;;;;;;6.30;100.00;152978.16;4944401;28;20534;-84
2023/11/13 03:32:18;;;;;;;12.83;9.67;;;;;;;6.31;100.00;152982.03;4944992;29;20459;-84
2023/11/13 03:34:45;;;;;;;12.27;9.60;;;;;;;6.31;100.00;152980.72;4949242;29;20473;-84
2023/11/13 03:37:12;;;;;;;13.67;9.30;;;;;;;6.33;100.00;152987.16;4927969;28;20467;-84
2023/11/13 03:39:38;;;;;;;14.27;9.40;;;;;;;6.35;100.00;152991.06;4948417;28;20451;-84
2023/11/13 03:42:05;;;;;;;10.30;8.60;;;;;;;6.39;100.00;153001.38;4947793;28;20576;-84
2023/11/13 03:44:32;;;;;;;10.00;8.70;;;;;;;6.43;100.00;153011.72;4943110;28;20481;-85
2023/11/13 03:46:58;;;;;;;11.93;8.93;;;;;;;6.48;100.00;153025.91;4944894;28;20521;-85
2023/11/13 03:49:26;;;;;;;9.47;7.53;;;;;;;6.49;100.00;153027.16;4939494;29;20558;-85
2023/11/13 03:51:53;;;;;;;8.50;6.23;;;;;;;6.48;100.00;153025.91;4944397;29;20487;-85
2023/11/13 03:54:20;;;;;;;7.67;6.07;;;;;;;6.49;100.00;153028.47;4949735;28;20443;-85
2023/11/13 03:56:46;;;;;;;6.73;5.40;;;;;;;6.59;100.00;153053.00;4946061;28;20463;-85
2023/11/13 03:59:13;;;;;;;5.80;4.60;;;;;;;6.64;100.00;153065.91;4951053;28;20444;-85
2023/11/13 04:01:40;;;;;;;4.87;4.23;;;;;;;6.66;100.00;153071.06;4953046;28;20494;-85
2023/11/13 04:04:09;;;;;;;5.70;3.87;;;;;;;6.81;100.00;153108.47;4951528;28;20479;-85
2023/11/13 04:06:37;;;;;;;7.63;3.60;;;;;;;6.94;100.00;153143.34;4949411;28;20569;-84
2023/11/13 04:09:06;;;;;;;4.23;3.23;;;;;;;6.99;100.00;153155.00;4950045;28;20462;-85
2023/11/13 04:11:32;;;;;;;3.83;3.23;;;;;;;7.06;100.00;153173.03;4951917;28;20466;-85
2023/11/13 04:13:59;;;;;;;4.07;3.30;;;;;;;7.06;100.00;153174.34;4950234;28;20885;-85
2023/11/13 04:16:25;;;;;;;4.03;2.73;;;;;;;7.10;100.00;153183.34;4952526;29;20561;-85
2023/11/13 04:18:52;;;;;;;4.23;2.63;;;;;;;7.12;100.00;153189.81;4954945;28;20474;-85
2023/11/13 04:21:18;;;;;;;3.00;2.30;;;;;;;7.20;100.00;153210.47;4938148;29;20455;-85
2023/11/13 04:23:47;;;;;;;3.00;2.40;;;;;;;7.22;100.00;153215.66;4954007;29;20878;-85
2023/11/13 04:26:14;;;;;;;4.67;2.10;;;;;;;7.31;100.00;153237.59;4947787;28;20467;-85
2023/11/13 04:28:41;;;;;;;2.40;1.57;;;;;;;7.36;100.00;153251.78;4952245;29;20518;-85
2023/11/13 04:31:08;;;;;;;3.63;2.13;;;;;;;7.41;100.00;153262.16;4954413;28;20573;-85
2023/11/13 04:33:34;;;;;;;2.00;1.60;;;;;;;7.54;100.00;153295.72;4954689;28;20443;-85
2023/11/13 04:36:01;;;;;;;2.40;2.00;;;;;;;7.56;100.00;153300.88;4950717;29;20459;-85
2023/11/13 04:38:28;;;;;;;3.87;1.83;;;;;;;7.67;100.00;153329.31;4950234;28;20475;-84
2023/11/13 04:40:55;;;;;;;2.13;1.27;;;;;;;7.68;100.00;153331.84;4948272;28;20455;-84
2023/11/13 04:43:22;;;;;;;3.67;1.60;;;;;;;7.60;100.00;153312.50;4953061;28;20832;-85
2023/11/13 04:45:49;;;;;;;2.53;1.60;;;;;;;7.66;100.00;153326.72;4938128;28;20462;-85
2023/11/13 04:48:16;;;;;;;2.20;1.43;;;;;;;7.65;100.00;153324.16;4952693;28;20861;-85
2023/11/13 04:50:43;;;;;;;2.20;1.50;;;;;;;7.66;100.00;153328.00;4952357;28;20494;-85
2023/11/13 04:53:09;;;;;;;2.50;1.40;;;;;;;7.67;100.00;153329.31;4951984;28;20879;-85
2023/11/13 04:55:36;;;;;;;3.23;1.63;;;;;;;7.66;100.00;153326.72;4950964;28;20486;-84
2023/11/13 04:58:03;;;;;;;3.73;1.73;;;;;;;7.67;100.00;153329.31;4948339;28;20448;-85
2023/11/13 05:00:30;;;;;;;3.30;1.50;;;;;;;7.75;100.00;153349.97;4950551;29;20470;-84
2023/11/13 05:02:56;;;;;;;1.93;1.37;;;;;;;7.76;100.00;153352.53;4947115;28;20998;-85
2023/11/13 05:05:23;;;;;;;6.40;2.10;;;;;;;7.77;100.00;153355.13;4942599;28;20501;-84
2023/11/13 05:07:50;;;;;;;4.03;1.60;;;;;;;7.88;100.00;153383.56;4932547;29;20471;-84
2023/11/13 05:10:17;;;;;;;3.17;1.73;;;;;;;7.91;100.00;153391.31;4948409;28;20463;-84
2023/11/13 05:12:44;;;;;;;2.97;1.87;;;;;;;8.02;100.00;153418.44;4948940;28;20443;-85
2023/11/13 05:15:15;;;;;;;4.90;2.10;;;;;;;7.98;100.00;153410.69;4943171;28;20549;-84
2023/11/13 05:17:41;;;;;;;1.87;1.60;;;;;;;7.98;100.00;153409.41;4933633;29;20455;-85
2023/11/13 05:20:11;;;;;;;4.30;2.17;;;;;;;8.04;100.00;153423.63;4951147;28;20962;-84
2023/11/13 05:22:40;;;;;;;3.00;2.50;;;;;;;7.99;100.00;153412.00;4952198;28;20455;-85
2023/11/13 05:25:07;;;;;;;8.20;2.17;;;;;;;7.96;100.00;153404.22;4953039;29;20467;-84
2023/11/13 05:27:34;;;;;;;2.93;2.50;;;;;;;7.95;100.00;153401.63;4957829;28;20677;-84
2023/11/13 05:30:01;;;;;;;6.07;2.27;;;;;;;7.95;100.00;153402.94;4957785;28;20459;-85
2023/11/13 05:32:28;;;;;;;4.60;2.00;;;;;;;7.99;100.00;153413.25;4952386;29;20459;-84
2023/11/13 05:34:55;;;;;;;3.20;1.70;;;;;;;7.99;100.00;153412.00;4952563;28;20459;-85
2023/11/13 05:37:22;;;;;;;3.70;1.63;;;;;;;7.94;100.00;153400.34;4946460;28;20795;-84
2023/11/13 05:39:48;;;;;;;2.97;2.07;;;;;;;7.93;100.00;153396.47;4944291;28;20965;-84
2023/11/13 05:42:16;;;;;;;7.90;2.60;;;;;;;7.88;100.00;153383.56;4945905;28;20530;-83
2023/11/13 05:44:48;;;;;;;5.47;2.70;;;;;;;7.91;100.00;153391.31;4963199;28;20471;-84
2023/11/13 05:47:17;;;;;;;4.73;2.47;;;;;;;7.89;100.00;153387.41;4943318;28;20467;-84
2023/11/13 05:49:46;;;;;;;5.27;2.10;;;;;;;7.90;100.00;153390.03;4946081;29;20863;-84
2023/11/13 05:52:14;;;;;;;5.43;2.30;;;;;;;7.94;100.00;153399.09;4943770;29;20456;-84
2023/11/13 05:54:41;;;;;;;5.97;2.63;;;;;;;7.97;100.00;153408.09;4944959;29;20439;-84
2023/11/13 05:57:10;;;;;;;3.43;2.27;;;;;;;7.96;100.00;153404.22;4944846;29;21076;-84
2023/11/13 05:59:37;;;;;;;5.03;2.27;;;;;;;8.04;100.00;153423.63;4943546;28;21041;-84
2023/11/13 06:02:03;;;;;;;3.90;2.47;;;;;;;8.03;100.00;153421.00;4943794;28;20974;-81
2023/11/13 06:04:30;;;;;;;6.83;3.10;;;;;;;8.06;100.00;153430.06;4939878;29;20506;-82
2023/11/13 06:06:57;;;;;;;4.67;2.50;;;;;;;8.09;100.00;153437.81;4942907;29;20864;-83
2023/11/13 06:09:24;;;;;;;7.53;2.93;;;;;;;8.12;100.00;153444.28;4940747;28;20459;-83
2023/11/13 06:11:50;;;;;;;8.77;3.07;;;;;;;8.11;100.00;153443.00;4941011;28;20463;-84
2023/11/13 06:14:23;;;;;;;8.50;2.70;;;;;;;8.07;100.00;153431.38;4943607;28;20466;-83
2023/11/13 06:16:49;;;;;;;6.80;2.57;;;;;;;8.10;100.00;153439.13;4947304;29;20466;-84
2023/11/13 06:19:16;;;;;;;7.30;3.10;;;;;;;8.13;100.00;153448.13;4943673;29;20451;-84
2023/11/13 06:21:42;;;;;;;5.57;2.80;;;;;;;8.07;100.00;153432.66;4937960;28;20459;-83
2023/11/13 06:24:11;;;;;;;10.43;3.53;;;;;;;8.11;100.00;153441.69;4939814;28;20494;-84
2023/11/13 06:26:37;;;;;;;7.70;3.13;;;;;;;8.09;100.00;153436.53;4941663;28;20456;-84
2023/11/13 06:29:04;;;;;;;7.83;3.40;;;;;;;8.09;100.00;153436.53;4942300;29;20447;-84
2023/11/13 06:31:31;;;;;;;9.97;5.43;;;;;;;8.07;100.00;153432.66;4948531;28;20463;-83
2023/11/13 06:33:57;;;;;;;9.23;6.10;;;;;;;8.15;100.00;153453.34;4942090;28;20455;-83
2023/11/13 06:36:24;;;;;;;11.63;6.07;;;;;;;8.16;100.00;153454.59;4944720;29;20456;-83
2023/11/13 06:38:51;;;;;;;8.70;4.77;;;;;;;8.16;100.00;153455.91;4935781;28;20463;-83
2023/11/13 06:41:18;;;;;;;9.33;4.87;;;;;;;8.16;100.00;153455.91;4941729;28;20474;-83
2023/11/13 06:43:45;;;;;;;6.67;4.27;;;;;;;8.13;100.00;153446.88;4943483;28;20494;-83
2023/11/13 06:46:12;;;;;;;11.97;4.83;;;;;;;8.15;100.00;153452.03;4941800;29;20475;-83
2023/11/13 06:48:38;;;;;;;9.73;4.10;;;;;;;8.19;100.00;153463.66;4943165;28;20463;-83
2023/11/13 06:51:06;;;;;;;8.17;3.87;;;;;;;8.20;100.00;153466.28;4940805;28;20494;-84
2023/11/13 06:53:32;;;;;;;4.83;3.17;;;;;;;8.25;100.00;153479.19;4940596;28;20985;-83
2023/11/13 06:55:59;;;;;;;7.33;3.70;;;;;;;8.24;100.00;153476.59;4942449;28;20468;-84
2023/11/13 06:58:27;;;;;;;8.63;3.67;;;;;;;8.19;100.00;153463.66;4941710;28;20479;-83
2023/11/13 07:00:54;;;;;;;8.17;3.87;;;;;;;8.21;100.00;153468.81;4941438;28;20821;-84
2023/11/13 07:03:21;;;;;;;6.47;3.90;;;;;;;8.21;100.00;153467.50;4936314;28;20466;-84
2023/11/13 07:05:49;;;;;;;7.40;3.37;;;;;;;8.22;100.00;153471.44;4939096;28;20502;-84
2023/11/13 07:08:15;;;;;;;5.50;3.37;;;;;;;8.27;100.00;153484.41;4941400;28;20978;-84
2023/11/13 07:10:43;;;;;;;10.60;3.63;;;;;;;8.25;100.00;153479.19;4940379;28;20486;-84
2023/11/13 07:13:11;;;;;;;9.53;4.23;;;;;;;8.26;100.00;153481.75;4944564;28;20529;-84
2023/11/13 07:15:40;;;;;;;7.83;3.40;;;;;;;8.26;100.00;153481.75;4940359;28;20985;-83
2023/11/13 07:18:07;;;;;;;10.77;4.20;;;;;;;8.26;100.00;153481.75;4941684;28;20446;-84
2023/11/13 07:20:34;;;;;;;6.10;3.50;;;;;;;8.27;100.00;153484.41;4940926;28;20455;-86
2023/11/13 07:23:02;;;;;;;5.93;3.00;;;;;;;8.27;100.00;153484.41;4941577;29;21017;-85
2023/11/13 07:25:30;;;;;;;9.90;3.77;;;;;;;8.26;100.00;153481.75;4941775;29;20475;-84
2023/11/13 07:27:57;;;;;;;10.27;3.70;;;;;;;8.27;100.00;153483.09;4938931;28;20538;-85
2023/11/13 07:30:24;;;;;;;7.63;3.20;;;;;;;8.28;100.00;153487.00;4939000;29;20455;-85
2023/11/13 07:32:52;;;;;;;6.30;3.27;;;;;;;8.31;100.00;153494.72;4939833;28;21333;-86
2023/11/13 07:35:19;;;;;;;8.70;3.57;;;;;;;8.33;100.00;153499.91;4940109;29;20788;-84
2023/11/13 07:37:46;;;;;;;7.33;2.90;;;;;;;8.34;100.00;153502.47;4941156;28;21111;-84
2023/11/13 07:40:14;;;;;;;6.87;3.23;;;;;;;8.30;100.00;153492.16;4939440;29;20836;-85
2023/11/13 07:42:41;;;;;;;7.10;3.40;;;;;;;8.31;100.00;153494.72;4941934;29;20448;-84
2023/11/13 07:45:09;;;;;;;10.20;3.23;;;;;;;8.28;100.00;153487.00;4938070;28;20482;-85
2023/11/13 07:47:39;;;;;;;9.57;2.43;;;;;;;8.26;100.00;153481.75;4941560;28;20483;-85
2023/11/13 07:50:11;;;;;;;6.43;3.37;;;;;;;8.32;100.00;153497.31;4942942;28;20494;-84
2023/11/13 07:52:41;;;;;;;8.60;3.10;;;;;;;8.36;100.00;153507.69;4941146;28;21295;-85
2023/11/13 07:55:09;;;;;;;12.57;3.30;;;;;;;8.39;100.00;153515.38;4943679;28;20463;-84
2023/11/13 07:57:37;;;;;;;9.73;3.53;;;;;;;8.41;100.00;153520.59;4940363;28;20855;-85
2023/11/13 08:00:10;;;;;;;7.57;3.47;;;;;;;8.46;100.00;153533.53;4954375;28;20462;-85
2023/11/13 08:02:40;;;;;;;6.53;3.17;;;;;;;8.51;100.00;153545.13;4942673;28;20447;-85
2023/11/13 08:05:10;;;;;;;9.23;3.20;;;;;;;8.55;100.00;153555.50;4941887;28;20490;-85
2023/11/13 08:07:39;;;;;;;5.77;3.10;;;;;;;8.60;100.00;153567.13;4956571;28;20550;-84
2023/11/13 08:10:12;;;;;;;8.00;3.00;;;;;;;8.63;100.00;153574.88;4941722;28;20470;-85
2023/11/13 08:12:39;;;;;;;5.30;3.17;;;;;;;8.62;100.00;153572.28;4940819;28;20451;-85
2023/11/13 08:15:08;;;;;;;8.93;3.33;;;;;;;8.61;100.00;153569.69;4944295;29;20459;-85
2023/11/13 08:17:34;;;;;;;4.27;3.20;;;;;;;8.61;100.00;153569.69;4945603;28;20478;-85
2023/11/13 08:20:01;;;;;;;6.77;3.07;;;;;;;8.60;100.00;153567.13;4943214;28;20471;-85
2023/11/13 08:22:29;;;;;;;11.47;3.63;;;;;;;8.58;100.00;153564.53;4942947;28;20466;-86
2023/11/13 08:24:55;;;;;;;3.60;2.80;;;;;;;8.56;100.00;153559.38;4940707;29;20491;-86
2023/11/13 08:27:22;;;;;;;7.23;3.10;;;;;;;8.55;100.00;153556.75;4943872;28;20546;-85
2023/11/13 08:29:49;;;;;;;8.43;2.90;;;;;;;8.52;100.00;153549.00;4940479;28;20918;-87
2023/11/13 08:32:17;;;;;;;6.50;2.97;;;;;;;8.51;100.00;153546.44;4942548;29;20479;-86
2023/11/13 08:34:43;;;;;;;4.40;2.53;;;;;;;8.51;100.00;153546.44;4944481;28;20506;-86
2023/11/13 08:37:11;;;;;;;6.50;3.30;;;;;;;8.52;100.00;153549.00;4941340;29;20514;-86
2023/11/13 08:39:39;;;;;;;3.63;2.53;;;;;;;8.56;100.00;153559.38;4944877;28;20455;-87
2023/11/13 08:42:07;;;;;;;7.10;2.73;;;;;;;8.58;100.00;153563.22;4944629;28;20451;-86
2023/11/13 08:44:34;;;;;;;3.57;2.30;;;;;;;8.53;100.00;153551.59;4924662;29;20479;-86
2023/11/13 08:47:03;;;;;;;5.67;1.90;;;;;;;8.45;100.00;153529.63;4941393;28;20827;-86
2023/11/13 08:49:30;;;;;;;5.17;2.10;;;;;;;8.48;100.00;153537.38;4943386;28;20494;-86
2023/11/13 08:51:58;;;;;;;5.23;2.53;;;;;;;8.52;100.00;153547.75;4961334;28;20444;-87
2023/11/13 08:54:28;;;;;;;4.50;1.90;;;;;;;8.53;100.00;153551.59;4949963;29;21301;-86
2023/11/13 08:56:56;;;;;;;2.83;1.63;;;;;;;8.54;100.00;153554.19;4945263;28;20451;-87
2023/11/13 08:59:23;;;;;;;3.87;2.30;;;;;;;8.58;100.00;153564.53;4929933;29;20463;-87
2023/11/13 09:01:49;;;;;;;9.47;2.53;;;;;;;8.61;100.00;153569.69;4946668;28;20577;-86
2023/11/13 09:04:16;;;;;;;6.70;2.80;;;;;;;8.62;100.00;153572.28;4944841;28;20467;-87
2023/11/13 09:06:45;;;;;;;8.87;3.47;;;;;;;8.64;100.00;153578.75;4939753;28;20490;-86
2023/11/13 09:09:13;;;;;;;4.93;3.00;;;;;;;8.64;100.00;153577.44;4946253;28;20804;-86
2023/11/13 09:11:40;;;;;;;8.07;2.67;;;;;;;8.66;100.00;153583.91;4946594;28;20462;-86
2023/11/13 09:14:10;;;;;;;5.00;2.50;;;;;;;8.69;100.00;153590.38;4947334;28;20915;-86
2023/11/13 09:16:38;;;;;;;7.83;2.80;;;;;;;8.70;100.00;153594.28;4950425;29;20487;-86
2023/11/13 09:19:06;;;;;;;3.80;2.43;;;;;;;8.72;100.00;153599.44;4959194;28;20455;-86
2023/11/13 09:21:32;;;;;;;7.03;2.70;;;;;;;8.75;100.00;153605.91;4941854;28;20490;-86
2023/11/13 09:23:59;;;;;;;5.47;3.00;;;;;;;8.75;100.00;153605.91;4945452;28;20899;-85
2023/11/13 09:26:25;;;;;;;5.07;3.10;;;;;;;8.72;100.00;153599.44;4942460;28;20530;-86
2023/11/13 09:28:53;;;;;;;7.20;3.37;;;;;;;8.75;100.00;153605.91;4945931;28;20837;-86
2023/11/13 09:31:21;;;;;;;11.73;3.03;;;;;;;8.78;100.00;153613.66;4942473;28;20470;-86
2023/11/13 09:33:48;;;;;;;4.70;2.87;;;;;;;8.83;100.00;153626.59;4942373;28;20471;-86
2023/11/13 09:36:14;;;;;;;3.27;2.77;;;;;;;8.87;100.00;153636.94;4946194;28;21081;-86
2023/11/13 09:38:41;;;;;;;5.37;3.00;;;;;;;8.89;100.00;153643.41;4936706;28;21021;-85
2023/11/13 09:41:08;;;;;;;5.30;3.10;;;;;;;8.88;100.00;153640.81;4945459;28;20455;-86
2023/11/13 09:43:35;;;;;;;8.23;3.90;;;;;;;8.92;100.00;153651.13;4939171;28;20468;-86
2023/11/13 09:46:04;;;;;;;4.80;3.40;;;;;;;8.96;100.00;153660.19;4941181;28;20498;-86
2023/11/13 09:48:36;;;;;;;6.13;3.80;;;;;;;8.98;100.00;153666.66;4944936;28;20446;-86
2023/11/13 09:51:18;;;;;;;6.53;4.17;;;;;;;9.04;100.00;153682.19;4940533;28;20623;-86
2023/11/13 09:53:45;;;;;;;6.10;3.73;;;;;;;9.10;100.00;153696.41;4944375;28;20443;-86
2023/11/13 09:56:12;;;;;;;6.50;3.40;;;;;;;9.13;100.00;153704.19;4943772;28;21305;-85
2023/11/13 09:58:39;;;;;;;6.10;3.80;;;;;;;9.14;100.00;153708.03;4943180;29;20526;-86
2023/11/13 10:01:07;;;;;;;6.70;3.87;;;;;;;9.18;100.00;153718.41;4946530;28;20952;-86
2023/11/13 10:03:36;;;;;;;9.07;4.10;;;;;;;9.15;100.00;153710.66;4925219;29;20451;-85
2023/11/13 10:06:03;;;;;;;6.80;4.30;;;;;;;9.18;100.00;153717.13;4944938;28;20990;-85
2023/11/13 10:08:31;;;;;;;6.80;4.43;;;;;;;9.19;100.00;153720.97;4943485;28;20831;-85
2023/11/13 10:10:58;;;;;;;5.20;3.53;;;;;;;9.23;100.00;153730.03;4943263;28;20554;-85
2023/11/13 10:13:25;;;;;;;9.70;4.13;;;;;;;9.23;100.00;153730.03;4944123;28;20455;-85
2023/11/13 10:15:52;;;;;;;5.67;4.13;;;;;;;9.25;100.00;153735.22;4943523;28;20519;-85
2023/11/13 10:18:25;;;;;;;9.60;3.80;;;;;;;9.25;100.00;153733.91;4945393;28;20860;-86
2023/11/13 10:20:53;;;;;;;7.90;4.07;;;;;;;9.28;100.00;153741.69;4946306;28;20479;-86
2023/11/13 10:23:20;;;;;;;8.40;4.13;;;;;;;9.31;100.00;153750.75;4950122;28;20463;-87
2023/11/13 10:25:50;;;;;;;10.40;3.97;;;;;;;9.35;100.00;153759.75;4949020;28;20860;-87
2023/11/13 10:28:17;;;;;;;5.70;3.00;;;;;;;9.45;100.00;153786.94;4946286;28;20538;-86
2023/11/13 10:30:56;;;;;;;7.43;2.93;;;;;;;9.44;100.00;153783.06;4941388;28;20468;-86
2023/11/13 10:33:22;;;;;;;5.83;2.90;;;;;;;9.50;100.00;153798.59;4943597;28;20456;-86
2023/11/13 10:35:49;;;;;;;2.37;2.03;;;;;;;9.55;100.00;153812.84;4943169;28;20982;-86
2023/11/13 10:38:20;;;;;;;4.20;2.50;;;;;;;9.59;100.00;153823.16;4945967;28;20463;-86
2023/11/13 10:40:55;;;;;;;4.13;2.73;;;;;;;9.65;100.00;153837.41;4925140;29;20538;-86
2023/11/13 10:43:28;;;;;;;4.23;2.57;;;;;;;9.71;100.00;153854.25;4963421;28;20447;-85
2023/11/13 10:45:55;;;;;;;4.17;2.57;;;;;;;9.86;100.00;153890.44;4947668;28;20491;-86
2023/11/13 10:48:24;;;;;;;4.50;2.30;;;;;;;10.00;100.00;153928.00;4941770;28;20522;-85
2023/11/13 10:50:50;;;;;;;4.60;2.20;;;;;;;10.06;100.00;153942.25;4943073;28;21089;-86
2023/11/13 10:53:18;;;;;;;2.50;2.00;;;;;;;10.15;100.00;153965.56;4944827;28;20459;-86
2023/11/13 10:55:46;;;;;;;4.53;2.20;;;;;;;10.15;100.00;153965.56;4941049;28;20451;-85
2023/11/13 10:58:12;;;;;;;5.20;2.30;;;;;;;10.16;100.00;153968.16;4960410;28;20443;-85
2023/11/13 11:00:41;;;;;;;5.83;2.30;;;;;;;10.22;100.00;153984.97;4942133;28;20463;-85
2023/11/13 11:03:09;;;;;;;6.80;2.90;;;;;;;10.29;100.00;154001.81;4942192;28;20486;-85
2023/11/13 11:05:49;;;;;;;3.73;2.40;;;;;;;10.38;100.00;154025.09;4942726;28;20553;-85
2023/11/13 11:08:19;;;;;;;5.03;2.50;;;;;;;10.40;100.00;154030.31;4924731;29;20459;-85
2023/11/13 11:10:47;;;;;;;4.10;2.20;;;;;;;10.44;100.00;154039.34;4943309;28;20869;-85
2023/11/13 11:13:16;;;;;;;3.33;2.40;;;;;;;10.44;100.00;154040.63;4947417;28;20455;-85
2023/11/13 11:16:05;;;;;;;5.43;2.57;;;;;;;10.54;100.00;154065.28;4947142;28;20486;-85
2023/11/13 11:18:39;;;;;;;3.60;2.07;;;;;;;10.52;100.00;154060.06;4942207;28;20939;-85
2023/11/13 11:21:15;;;;;;;4.30;2.37;;;;;;;10.59;100.00;154079.47;4939413;29;20450;-85
2023/11/13 11:23:47;;;;;;;6.63;2.60;;;;;;;10.65;100.00;154095.03;4942851;28;20459;-85